Time;durP1;ratioP1;P1;durP2;ratioP2;P2;SDS_P1;SDS_P2;PMS_P1;PMS_P2;Temp;Humidity;BMP_temperature;BMP_pressure;BME280_temperature;BME280_humidity;BME280_pressure;Samples;Min_cycle;Max_cycle;Signal;HPM_P1;HPM_P2
2024/04/12 00:01:44;;;;;;;;;;;14.30;99.90;;;;;;5433692;26;19928;-79
2024/04/12 00:04:09;;;;;;;;;;;14.30;99.90;;;;;;5454920;26;19928;-80
2024/04/12 00:06:37;;;;;;;;;;;14.30;99.90;;;;;;5429644;26;19934;-79
2024/04/12 00:09:09;;;;;;;;;;;14.30;99.90;;;;;;5458462;26;20027;-79
2024/04/12 00:11:35;;;;;;;;;;;14.30;99.90;;;;;;5455012;26;19948;-79
2024/04/12 00:14:03;;;;;;;;;;;14.30;99.90;;;;;;5453900;26;19956;-79
2024/04/12 00:16:29;;;;;;;;;;;14.20;99.90;;;;;;5488764;26;20360;-79
2024/04/12 00:19:07;;;;;;;;;;;14.20;99.90;;;;;;5457787;26;19943;-79
2024/04/12 00:21:46;;;;;;;;;;;14.30;99.90;;;;;;5488305;26;19935;-78
2024/04/12 00:24:12;;;;;;;;;;;14.20;99.90;;;;;;5488643;26;19935;-79
2024/04/12 00:26:42;;;;;;;;;;;14.30;99.90;;;;;;5435854;26;19938;-79
2024/04/12 00:32:13;;;;;;;;;;;14.30;99.90;;;;;;5471533;26;19997;-79
2024/04/12 00:34:47;;;;;;;;;;;14.30;99.90;;;;;;5489240;26;20244;-81
2024/04/12 00:37:15;;;;;;;;;;;14.30;99.90;;;;;;5484990;26;19993;-79
2024/04/12 00:39:41;;;;;;;;;;;14.20;99.90;;;;;;5459273;26;19928;-80
2024/04/12 00:42:13;;;;;;;;;;;14.20;99.90;;;;;;5489209;26;19955;-77
2024/04/12 00:44:40;;;;;;;;;;;14.20;99.90;;;;;;5458420;26;19928;-78
2024/04/12 00:47:15;;;;;;;;;;;14.20;99.90;;;;;;5488226;26;19993;-77
2024/04/12 00:49:54;;;;;;;;;;;14.20;99.90;;;;;;5458866;26;20251;-77
2024/04/12 00:52:26;;;;;;;;;;;14.30;99.90;;;;;;5460475;26;19997;-77
2024/04/12 00:55:03;;;;;;;;;;;14.30;99.90;;;;;;5429657;26;19932;-78
2024/04/12 00:57:36;;;;;;;;;;;14.20;99.90;;;;;;5489803;26;19936;-78
2024/04/12 01:00:11;;;;;;;;;;;14.20;99.90;;;;;;5463045;26;19935;-77
2024/04/12 01:02:39;;;;;;;;;;;14.20;99.90;;;;;;5479838;26;20332;-77
2024/04/12 01:05:15;;;;;;;;;;;14.20;99.90;;;;;;5526672;25;19993;-78
2024/04/12 01:07:48;;;;;;;;;;;14.20;99.90;;;;;;5466699;26;19935;-77
2024/04/12 01:10:21;;;;;;;;;;;14.20;99.90;;;;;;5479084;26;20321;-77
2024/04/12 01:13:02;;;;;;;;;;;14.20;99.90;;;;;;5484955;26;19935;-78
2024/04/12 01:15:32;;;;;;;;;;;14.20;99.90;;;;;;5457091;26;20377;-77
2024/04/12 01:18:13;;;;;;;;;;;14.20;99.90;;;;;;5456935;26;20047;-77
2024/04/12 01:20:39;;;;;;;;;;;14.20;99.90;;;;;;5488905;26;19934;-77
2024/04/12 01:23:06;;;;;;;;;;;14.20;99.90;;;;;;5456755;26;19928;-78
2024/04/12 01:25:32;;;;;;;;;;;14.20;99.90;;;;;;5487258;26;20000;-77
2024/04/12 01:27:57;;;;;;;;;;;14.20;99.90;;;;;;5466745;26;20396;-77
2024/04/12 01:30:30;;;;;;;;;;;14.20;99.90;;;;;;5500960;26;19936;-78
2024/04/12 01:33:08;;;;;;;;;;;14.20;99.90;;;;;;5486558;26;19940;-77
2024/04/12 01:35:34;;;;;;;;;;;14.20;99.90;;;;;;5487990;26;19931;-77
2024/04/12 01:38:15;;;;;;;;;;;14.20;99.90;;;;;;5426777;26;19936;-78
2024/04/12 01:40:46;;;;;;;;;;;14.20;99.90;;;;;;5451534;26;19928;-77
2024/04/12 01:43:13;;;;;;;;;;;14.20;99.90;;;;;;5429748;26;19936;-77
2024/04/12 01:45:39;;;;;;;;;;;14.20;99.90;;;;;;5493384;26;20229;-77
2024/04/12 01:48:06;;;;;;;;;;;14.20;99.90;;;;;;5500801;25;19940;-77
2024/04/12 01:50:34;;;;;;;;;;;14.20;99.90;;;;;;5457033;26;19935;-77
2024/04/12 01:53:09;;;;;;;;;;;14.20;99.90;;;;;;5501277;26;19927;-77
2024/04/12 01:55:39;;;;;;;;;;;14.20;99.90;;;;;;5495935;26;19955;-77
2024/04/12 01:58:06;;;;;;;;;;;14.20;99.90;;;;;;5526139;25;19935;-78
2024/04/12 02:00:33;;;;;;;;;;;14.20;99.90;;;;;;5523496;26;19927;-77
2024/04/12 02:02:59;;;;;;;;;;;14.20;99.90;;;;;;5512869;26;19928;-78
2024/04/12 02:05:32;;;;;;;;;;;14.20;99.90;;;;;;5503875;26;19938;-78
2024/04/12 02:08:08;;;;;;;;;;;14.30;99.90;;;;;;5467168;26;19935;-78
2024/04/12 02:10:34;;;;;;;;;;;14.20;99.90;;;;;;5480548;26;20006;-77
2024/04/12 02:12:59;;;;;;;;;;;14.30;99.90;;;;;;5462051;26;19935;-77
2024/04/12 02:15:28;;;;;;;;;;;14.30;99.90;;;;;;5452360;26;19936;-78
2024/04/12 02:17:57;;;;;;;;;;;14.20;99.90;;;;;;5450721;26;19937;-77
2024/04/12 02:20:35;;;;;;;;;;;14.20;99.90;;;;;;5456079;26;19993;-77
2024/04/12 02:23:05;;;;;;;;;;;14.20;99.90;;;;;;5428638;26;19935;-77
2024/04/12 02:25:35;;;;;;;;;;;14.20;99.90;;;;;;5425854;26;19928;-77
2024/04/12 02:28:07;;;;;;;;;;;14.20;99.90;;;;;;5456037;26;19987;-77
2024/04/12 02:30:45;;;;;;;;;;;14.20;99.90;;;;;;5481293;26;20018;-76
2024/04/12 02:33:17;;;;;;;;;;;14.20;99.90;;;;;;5477555;26;19942;-76
2024/04/12 02:35:43;;;;;;;;;;;14.20;99.90;;;;;;5462097;26;19927;-76
2024/04/12 02:38:15;;;;;;;;;;;14.20;99.90;;;;;;5523026;26;19952;-77
2024/04/12 02:40:44;;;;;;;;;;;14.20;99.90;;;;;;5444148;26;20248;-77
2024/04/12 02:43:10;;;;;;;;;;;14.20;99.90;;;;;;5523648;26;19931;-77
2024/04/12 02:45:36;;;;;;;;;;;14.20;99.90;;;;;;5523672;26;20274;-76
2024/04/12 02:48:06;;;;;;;;;;;14.20;99.90;;;;;;5484958;26;19928;-77
2024/04/12 02:50:32;;;;;;;;;;;14.20;99.90;;;;;;5504649;26;20246;-76
2024/04/12 02:52:58;;;;;;;;;;;14.20;99.90;;;;;;5429310;26;19928;-77
2024/04/12 02:55:30;;;;;;;;;;;14.20;99.90;;;;;;5486034;26;19963;-77
2024/04/12 02:57:56;;;;;;;;;;;14.20;99.90;;;;;;5448265;26;19936;-76
2024/04/12 03:00:23;;;;;;;;;;;14.20;99.90;;;;;;5390970;26;20384;-76
2024/04/12 03:02:49;;;;;;;;;;;14.20;99.90;;;;;;5450653;26;19929;-76
2024/04/12 03:05:15;;;;;;;;;;;14.20;99.90;;;;;;5433703;26;19932;-77
2024/04/12 03:07:41;;;;;;;;;;;14.20;99.90;;;;;;5518585;26;19939;-76
2024/04/12 03:10:07;;;;;;;;;;;14.20;99.90;;;;;;5486466;26;19935;-76
2024/04/12 03:12:33;;;;;;;;;;;14.20;99.90;;;;;;5456027;26;19993;-76
2024/04/12 03:15:04;;;;;;;;;;;14.20;99.90;;;;;;5485966;26;19935;-76
2024/04/12 03:17:32;;;;;;;;;;;14.20;99.90;;;;;;5459262;26;20309;-77
2024/04/12 03:19:57;;;;;;;;;;;14.20;99.90;;;;;;5488680;26;19928;-77
2024/04/12 03:22:23;;;;;;;;;;;14.20;99.90;;;;;;5502194;26;19934;-77
2024/04/12 03:24:50;;;;;;;;;;;14.20;99.90;;;;;;5522507;26;19927;-78
2024/04/12 03:27:16;;;;;;;;;;;14.20;99.90;;;;;;5485788;26;19932;-78
2024/04/12 03:29:42;;;;;;;;;;;14.20;99.90;;;;;;5465399;26;19927;-77
2024/04/12 03:32:07;;;;;;;;;;;14.20;99.90;;;;;;5515410;26;19934;-77
2024/04/12 03:34:36;;;;;;;;;;;14.20;99.90;;;;;;5455013;26;19935;-77
2024/04/12 03:39:46;;;;;;;;;;;14.20;99.90;;;;;;5490502;26;19996;-78
2024/04/12 03:42:12;;;;;;;;;;;14.30;99.90;;;;;;5449052;26;19961;-76
2024/04/12 03:44:38;;;;;;;;;;;14.30;99.90;;;;;;5450536;26;20259;-76
2024/04/12 03:47:13;;;;;;;;;;;14.20;99.90;;;;;;5485957;26;19931;-76
2024/04/12 03:49:39;;;;;;;;;;;14.30;99.90;;;;;;5427923;26;19931;-78
2024/04/12 03:52:05;;;;;;;;;;;14.30;99.90;;;;;;5455934;26;20553;-76
2024/04/12 03:54:31;;;;;;;;;;;14.30;99.90;;;;;;5455567;26;19958;-76
2024/04/12 03:56:57;;;;;;;;;;;14.30;99.90;;;;;;5481667;26;20609;-77
2024/04/12 03:59:29;;;;;;;;;;;14.20;99.90;;;;;;5419728;26;19928;-77
2024/04/12 04:01:55;;;;;;;;;;;14.20;99.90;;;;;;5464467;26;19928;-77
2024/04/12 04:04:25;;;;;;;;;;;14.20;99.90;;;;;;5449224;26;19965;-77
2024/04/12 04:06:54;;;;;;;;;;;14.20;99.90;;;;;;5465711;26;19928;-76
2024/04/12 04:09:21;;;;;;;;;;;14.20;99.90;;;;;;5488594;26;19939;-77
2024/04/12 04:11:47;;;;;;;;;;;14.20;99.90;;;;;;5450224;26;19994;-76
2024/04/12 04:14:25;;;;;;;;;;;14.20;99.90;;;;;;5472921;26;19994;-78
2024/04/12 04:16:52;;;;;;;;;;;14.10;99.90;;;;;;5479652;26;20336;-76
2024/04/12 04:19:30;;;;;;;;;;;14.10;99.90;;;;;;5471946;26;19935;-77
2024/04/12 04:22:39;;;;;;;;;;;14.10;99.90;;;;;;5489539;26;19994;-76
2024/04/12 04:25:08;;;;;;;;;;;14.10;99.90;;;;;;5466095;26;19935;-77
2024/04/12 04:27:34;;;;;;;;;;;14.10;99.90;;;;;;5413466;26;20270;-77
2024/04/12 04:30:00;;;;;;;;;;;14.10;99.90;;;;;;5453409;26;19935;-76
2024/04/12 04:32:26;;;;;;;;;;;14.10;99.90;;;;;;5457625;26;19935;-79
2024/04/12 04:35:04;;;;;;;;;;;14.10;99.90;;;;;;5442538;26;19928;-79
2024/04/12 04:37:31;;;;;;;;;;;14.10;99.90;;;;;;5431300;26;19936;-79
2024/04/12 04:40:08;;;;;;;;;;;14.10;99.90;;;;;;5491378;26;20634;-79
2024/04/12 04:42:45;;;;;;;;;;;14.10;99.90;;;;;;5496574;26;19932;-79
2024/04/12 04:45:17;;;;;;;;;;;14.10;99.90;;;;;;5500319;25;19927;-79
2024/04/12 04:47:46;;;;;;;;;;;14.10;99.90;;;;;;5488582;26;19936;-79
2024/04/12 04:50:16;;;;;;;;;;;14.10;99.90;;;;;;5446531;25;19935;-79
2024/04/12 04:52:44;;;;;;;;;;;14.20;99.90;;;;;;5483012;26;19967;-79
2024/04/12 04:55:13;;;;;;;;;;;14.10;99.90;;;;;;5465543;26;19927;-79
2024/04/12 04:57:44;;;;;;;;;;;14.10;99.90;;;;;;5465054;26;19935;-80
2024/04/12 05:00:22;;;;;;;;;;;14.10;99.90;;;;;;5465225;26;19928;-78
2024/04/12 05:02:50;;;;;;;;;;;14.10;99.90;;;;;;5439690;26;19935;-79
2024/04/12 05:05:22;;;;;;;;;;;14.10;99.90;;;;;;5495785;26;19935;-79
2024/04/12 05:07:52;;;;;;;;;;;14.10;99.90;;;;;;5495822;26;19938;-79
2024/04/12 05:10:20;;;;;;;;;;;14.10;99.90;;;;;;5477312;26;19931;-79
2024/04/12 05:12:48;;;;;;;;;;;14.10;99.90;;;;;;5494681;26;20360;-78
2024/04/12 05:18:15;;;;;;;;;;;14.10;99.90;;;;;;5398356;26;20395;-79
2024/04/12 05:20:41;;;;;;;;;;;14.10;99.90;;;;;;5448947;26;19934;-79
2024/04/12 05:23:15;;;;;;;;;;;14.20;99.90;;;;;;5429022;26;20240;-79
2024/04/12 05:25:41;;;;;;;;;;;14.20;99.90;;;;;;5478547;25;19943;-80
2024/04/12 05:28:10;;;;;;;;;;;14.10;99.90;;;;;;5496692;25;19931;-79
2024/04/12 05:30:36;;;;;;;;;;;14.20;99.90;;;;;;5453570;26;19935;-78
2024/04/12 05:33:03;;;;;;;;;;;14.20;99.90;;;;;;5494343;26;19935;-79
2024/04/12 05:35:30;;;;;;;;;;;14.20;99.90;;;;;;5500426;25;19937;-78
2024/04/12 05:37:58;;;;;;;;;;;14.20;99.90;;;;;;5443689;26;19928;-79
2024/04/12 05:40:25;;;;;;;;;;;14.20;99.90;;;;;;5509654;26;20041;-79
2024/04/12 05:42:51;;;;;;;;;;;14.20;99.90;;;;;;5462020;26;19935;-79
2024/04/12 05:45:19;;;;;;;;;;;14.20;99.90;;;;;;5433392;26;19939;-78
2024/04/12 05:47:54;;;;;;;;;;;14.30;99.90;;;;;;5484392;25;19927;-79
2024/04/12 05:50:20;;;;;;;;;;;14.20;99.90;;;;;;5472549;26;19940;-79
2024/04/12 05:52:46;;;;;;;;;;;14.30;99.90;;;;;;5457745;26;20306;-78
2024/04/12 05:55:14;;;;;;;;;;;14.30;99.90;;;;;;5469112;26;19956;-79
2024/04/12 05:57:43;;;;;;;;;;;14.30;99.90;;;;;;5471488;25;19927;-78
2024/04/12 06:00:10;;;;;;;;;;;14.30;99.90;;;;;;5472577;26;19927;-79
2024/04/12 06:02:37;;;;;;;;;;;14.30;99.90;;;;;;5449709;25;19931;-79
2024/04/12 06:05:05;;;;;;;;;;;14.30;99.90;;;;;;5432175;26;19988;-79
2024/04/12 06:07:35;;;;;;;;;;;14.30;99.90;;;;;;5464409;26;19927;-79
2024/04/12 06:10:01;;;;;;;;;;;14.30;99.90;;;;;;5494549;26;19934;-80
2024/04/12 06:12:33;;;;;;;;;;;14.30;99.90;;;;;;5503297;25;19926;-80
2024/04/12 06:15:04;;;;;;;;;;;14.30;99.90;;;;;;5482079;26;19951;-80
2024/04/12 06:17:30;;;;;;;;;;;14.30;99.90;;;;;;5493172;26;19981;-79
2024/04/12 06:19:59;;;;;;;;;;;14.40;99.90;;;;;;5493155;26;19931;-79
2024/04/12 06:22:26;;;;;;;;;;;14.40;99.90;;;;;;5440130;26;19928;-79
2024/04/12 06:24:52;;;;;;;;;;;14.40;99.90;;;;;;5459065;26;19935;-79
2024/04/12 06:27:29;;;;;;;;;;;14.40;99.90;;;;;;5494572;26;20408;-79
2024/04/12 06:30:00;;;;;;;;;;;14.40;99.90;;;;;;5462707;25;19928;-80
2024/04/12 06:32:26;;;;;;;;;;;14.40;99.90;;;;;;5429346;26;19935;-79
2024/04/12 06:34:55;;;;;;;;;;;14.40;99.90;;;;;;5469697;26;19996;-79
2024/04/12 06:37:23;;;;;;;;;;;14.40;99.90;;;;;;5525689;26;19987;-78
2024/04/12 06:39:49;;;;;;;;;;;14.40;99.90;;;;;;5495536;26;19928;-79
2024/04/12 06:42:17;;;;;;;;;;;14.40;99.90;;;;;;5463334;26;19934;-78
2024/04/12 06:44:48;;;;;;;;;;;14.40;99.90;;;;;;5492818;26;19927;-80
2024/04/12 06:47:18;;;;;;;;;;;14.40;99.90;;;;;;5458158;26;20344;-79
2024/04/12 06:49:45;;;;;;;;;;;14.40;99.90;;;;;;5487074;26;20672;-79
2024/04/12 06:52:20;;;;;;;;;;;14.40;99.90;;;;;;5472699;26;19928;-79
2024/04/12 06:54:50;;;;;;;;;;;14.40;99.90;;;;;;5509771;26;19935;-78
2024/04/12 06:57:18;;;;;;;;;;;14.40;99.90;;;;;;5491360;26;19934;-79
2024/04/12 06:59:46;;;;;;;;;;;14.40;99.90;;;;;;5433242;26;19935;-79
2024/04/12 07:02:14;;;;;;;;;;;14.50;99.90;;;;;;5455816;26;19928;-79
2024/04/12 07:04:39;;;;;;;;;;;14.50;99.90;;;;;;5484357;26;19954;-78
2024/04/12 07:07:05;;;;;;;;;;;14.50;99.90;;;;;;5484994;26;19931;-78
2024/04/12 07:09:34;;;;;;;;;;;14.60;99.90;;;;;;5505404;26;19993;-78
2024/04/12 07:12:05;;;;;;;;;;;14.50;99.90;;;;;;5442851;26;20010;-80
2024/04/12 07:14:37;;;;;;;;;;;14.60;99.90;;;;;;5494191;26;19927;-79
2024/04/12 07:17:19;;;;;;;;;;;14.60;99.90;;;;;;5505139;26;19940;-79
2024/04/12 07:19:49;;;;;;;;;;;14.60;99.90;;;;;;5485878;26;20275;-79
2024/04/12 07:22:18;;;;;;;;;;;14.70;99.90;;;;;;5453088;26;19936;-79
2024/04/12 07:24:47;;;;;;;;;;;14.70;99.90;;;;;;5477325;26;19935;-79
2024/04/12 07:27:15;;;;;;;;;;;14.70;99.90;;;;;;5452653;26;20386;-79
2024/04/12 07:29:44;;;;;;;;;;;14.80;99.90;;;;;;5419625;26;19938;-79
2024/04/12 07:32:13;;;;;;;;;;;14.80;99.90;;;;;;5424259;26;20310;-78
2024/04/12 07:34:48;;;;;;;;;;;14.80;99.90;;;;;;5502466;26;19927;-79
2024/04/12 07:37:32;;;;;;;;;;;14.80;99.90;;;;;;5485501;26;20314;-79
2024/04/12 07:42:47;;;;;;;;;;;14.90;99.90;;;;;;5477851;26;19932;-79
2024/04/12 07:45:17;;;;;;;;;;;14.90;99.90;;;;;;5452661;26;19992;-79
2024/04/12 07:47:52;;;;;;;;;;;14.90;99.90;;;;;;5465330;26;19943;-79
2024/04/12 07:50:21;;;;;;;;;;;14.90;99.90;;;;;;5498157;26;19992;-79
2024/04/12 07:52:50;;;;;;;;;;;15.00;99.90;;;;;;5463984;26;19934;-79
2024/04/12 07:55:23;;;;;;;;;;;15.00;99.90;;;;;;5481107;26;20245;-79
2024/04/12 08:00:36;;;;;;;;;;;15.00;99.90;;;;;;5694317;21;20152;-80
2024/04/12 09:11:45;;;;;;;;;;;15.80;99.90;;;;;;5702958;21;19929;-80
2024/04/12 09:14:19;;;;;;;;;;;15.80;99.90;;;;;;5403536;26;19935;-78
2024/04/12 09:16:53;;;;;;;;;;;15.80;99.90;;;;;;5371255;26;19928;-79
2024/04/12 09:19:25;;;;;;;;;;;15.80;99.90;;;;;;5361380;26;19981;-79
2024/04/12 09:21:58;;;;;;;;;;;15.80;99.90;;;;;;5358640;26;19957;-78
2024/04/12 09:24:31;;;;;;;;;;;15.80;99.90;;;;;;5329944;26;19929;-78
2024/04/12 09:27:09;;;;;;;;;;;15.90;99.90;;;;;;5359366;26;19929;-78
2024/04/12 09:29:43;;;;;;;;;;;15.90;99.90;;;;;;5386891;26;20248;-78
2024/04/12 09:34:58;;;;;;;;;;;15.90;99.90;;;;;;5418771;26;19939;-79
2024/04/12 09:37:38;;;;;;;;;;;16.10;99.90;;;;;;5418014;26;19933;-79
2024/04/12 09:40:16;;;;;;;;;;;16.10;99.90;;;;;;5361706;26;19929;-79
2024/04/12 09:45:27;;;;;;;;;;;16.30;99.90;;;;;;5384348;26;20429;-79
2024/04/12 10:37:47;;;;;;;;;;;16.90;99.90;;;;;;5408491;26;19929;-78
2024/04/12 10:40:13;;;;;;;;;;;17.00;99.90;;;;;;5357875;26;19941;-79
2024/04/12 10:42:38;;;;;;;;;;;16.90;99.90;;;;;;5386613;26;19995;-79
2024/04/12 10:45:07;;;;;;;;;;;16.90;99.90;;;;;;5367989;26;19929;-79
2024/04/12 10:47:39;;;;;;;;;;;17.00;99.90;;;;;;5351322;26;19929;-79
2024/04/12 10:50:05;;;;;;;;;;;16.90;99.90;;;;;;5356432;26;19937;-79
2024/04/12 10:52:31;;;;;;;;;;;17.10;99.90;;;;;;5392944;26;20256;-79
2024/04/12 10:54:57;;;;;;;;;;;17.00;99.90;;;;;;5416958;26;19929;-79
2024/04/12 10:57:23;;;;;;;;;;;17.10;99.90;;;;;;5416360;26;19994;-79
2024/04/12 10:59:51;;;;;;;;;;;17.00;99.90;;;;;;5382227;26;20329;-79
2024/04/12 11:02:17;;;;;;;;;;;17.10;99.90;;;;;;5324548;26;19937;-79
2024/04/12 11:07:31;;;;;;;;;;;17.00;99.90;;;;;;5418542;26;19964;-79
2024/04/12 11:10:03;;;;;;;;;;;17.10;99.90;;;;;;5414087;26;19936;-78
2024/04/12 11:12:40;;;;;;;;;;;17.20;99.90;;;;;;5359192;26;19945;-78
2024/04/12 11:31:07;;;;;;;;;;;17.20;99.90;;;;;;5354972;26;20316;-78
2024/04/12 11:31:52;;;;;;;;;;;18.00;99.90;;;;;;5343952;26;19933;-79
2024/04/12 11:34:19;;;;;;;;;;;18.00;99.90;;;;;;5354321;26;19942;-79
2024/04/12 11:36:53;;;;;;;;;;;17.70;99.90;;;;;;5359218;26;19937;-79
2024/04/12 11:39:25;;;;;;;;;;;17.70;99.90;;;;;;5369099;26;20428;-79
2024/04/12 11:42:00;;;;;;;;;;;17.60;99.90;;;;;;5388139;26;19929;-79
2024/04/12 11:44:26;;;;;;;;;;;17.60;99.90;;;;;;5391379;26;19979;-79
2024/04/12 11:46:56;;;;;;;;;;;17.60;99.90;;;;;;5388269;26;19936;-79
2024/04/12 11:49:25;;;;;;;;;;;17.50;99.90;;;;;;5382375;26;20317;-79
2024/04/12 11:51:55;;;;;;;;;;;17.70;99.90;;;;;;5372026;26;19929;-78
2024/04/12 11:54:27;;;;;;;;;;;17.70;99.90;;;;;;5390058;26;19961;-78
2024/04/12 11:56:54;;;;;;;;;;;17.80;99.90;;;;;;5319066;26;19937;-78
2024/04/12 11:59:19;;;;;;;;;;;17.80;99.90;;;;;;5290197;26;19937;-79
2024/04/12 12:01:45;;;;;;;;;;;17.90;99.90;;;;;;5378756;26;19930;-78
2024/04/12 12:04:11;;;;;;;;;;;18.00;99.90;;;;;;5358305;26;19936;-79
2024/04/12 12:06:37;;;;;;;;;;;17.80;99.90;;;;;;5388070;26;19933;-81
2024/04/12 12:09:11;;;;;;;;;;;17.80;99.90;;;;;;5388528;26;19984;-78
2024/04/12 12:11:37;;;;;;;;;;;17.90;99.90;;;;;;5386172;26;20348;-80
2024/04/12 12:14:05;;;;;;;;;;;17.80;99.90;;;;;;5388587;26;19937;-79
2024/04/12 12:16:33;;;;;;;;;;;17.80;99.90;;;;;;5390213;26;19936;-79
2024/04/12 12:18:59;;;;;;;;;;;17.80;99.90;;;;;;5376139;26;19929;-79
2024/04/12 12:21:28;;;;;;;;;;;17.80;99.90;;;;;;5419640;26;19937;-78
2024/04/12 12:23:55;;;;;;;;;;;17.70;99.90;;;;;;5363839;26;19933;-79
2024/04/12 12:26:22;;;;;;;;;;;17.90;99.90;;;;;;5351876;26;19930;-79
2024/04/12 12:28:50;;;;;;;;;;;18.00;99.90;;;;;;5324686;26;19962;-79
2024/04/12 12:31:18;;;;;;;;;;;18.00;99.90;;;;;;5405657;26;19929;-79
2024/04/12 12:33:45;;;;;;;;;;;18.00;99.90;;;;;;5349650;26;19937;-79
2024/04/12 12:36:16;;;;;;;;;;;18.00;99.90;;;;;;5382836;26;19936;-78
2024/04/12 12:38:43;;;;;;;;;;;17.90;99.90;;;;;;5366040;26;19929;-78
2024/04/12 12:41:09;;;;;;;;;;;17.90;99.90;;;;;;5355097;26;19972;-79
2024/04/12 12:43:34;;;;;;;;;;;17.90;99.90;;;;;;5383924;26;20292;-78
2024/04/12 12:46:00;;;;;;;;;;;17.80;99.90;;;;;;5375411;26;19939;-78
2024/04/12 12:48:29;;;;;;;;;;;17.80;99.90;;;;;;5330952;26;19965;-78
2024/04/12 12:50:55;;;;;;;;;;;17.80;99.90;;;;;;5377939;26;19937;-78
2024/04/12 12:53:22;;;;;;;;;;;17.90;99.90;;;;;;5353337;26;19937;-79
2024/04/12 12:55:49;;;;;;;;;;;17.80;99.90;;;;;;5329631;26;19929;-79
2024/04/12 12:58:18;;;;;;;;;;;17.80;99.90;;;;;;5359128;26;19933;-78
2024/04/12 13:00:49;;;;;;;;;;;17.80;99.90;;;;;;5334676;26;19929;-78
2024/04/12 13:03:17;;;;;;;;;;;17.70;99.90;;;;;;5325169;26;19949;-78
2024/04/12 13:05:45;;;;;;;;;;;17.80;99.90;;;;;;5344800;26;20259;-78
2024/04/12 13:08:15;;;;;;;;;;;17.80;99.90;;;;;;5389862;26;19929;-78
2024/04/12 13:10:42;;;;;;;;;;;17.80;99.90;;;;;;5386532;26;20396;-79
2024/04/12 13:13:08;;;;;;;;;;;17.90;99.90;;;;;;5388009;26;20695;-79
2024/04/12 13:15:33;;;;;;;;;;;17.80;99.90;;;;;;5334512;26;19935;-79
2024/04/12 13:17:59;;;;;;;;;;;17.80;99.90;;;;;;5387772;26;19941;-79
2024/04/12 13:20:35;;;;;;;;;;;17.80;99.90;;;;;;5387362;26;19933;-79
2024/04/12 13:23:02;;;;;;;;;;;17.80;99.90;;;;;;5335293;26;19996;-79
2024/04/12 13:25:28;;;;;;;;;;;17.80;99.90;;;;;;5387461;26;19929;-79
2024/04/12 13:27:54;;;;;;;;;;;17.90;99.90;;;;;;5388332;26;20621;-79
2024/04/12 13:30:21;;;;;;;;;;;17.90;99.90;;;;;;5388304;26;19957;-79
2024/04/12 13:32:49;;;;;;;;;;;17.80;99.90;;;;;;5381094;26;19999;-78
2024/04/12 13:35:16;;;;;;;;;;;17.80;99.90;;;;;;5377076;26;20245;-79
2024/04/12 13:37:43;;;;;;;;;;;17.70;99.90;;;;;;5323648;26;19930;-79
2024/04/12 13:40:17;;;;;;;;;;;17.70;99.90;;;;;;5377865;26;19929;-79
2024/04/12 13:42:45;;;;;;;;;;;17.70;99.90;;;;;;5333358;26;19937;-79
2024/04/12 13:50:55;;;;;;;;;;;17.70;99.90;;;;;;5302124;26;19930;-80
2024/04/12 13:53:31;;;;;;;;;;;17.80;99.90;;;;;;5418899;26;20010;-80
2024/04/12 13:56:25;;;;;;;;;;;17.70;99.90;;;;;;5329412;26;19940;-80
2024/04/12 13:58:53;;;;;;;;;;;17.70;99.90;;;;;;5390211;26;19936;-80
2024/04/12 14:01:22;;;;;;;;;;;17.70;99.90;;;;;;5358828;26;19929;-80
2024/04/12 14:03:51;;;;;;;;;;;17.70;99.90;;;;;;5359756;26;19929;-80
2024/04/12 14:06:18;;;;;;;;;;;17.70;99.90;;;;;;5358872;26;19936;-79
2024/04/12 14:38:40;;;;;;;;;;;17.80;99.90;;;;;;5919385;21;21106;-80
2024/04/12 14:41:07;;;;;;;;;;;17.80;99.90;;;;;;5316524;26;19942;-79
2024/04/12 14:43:34;;;;;;;;;;;17.90;99.90;;;;;;5318334;26;19937;-80
2024/04/12 14:46:23;;;;;;;;;;;18.00;99.90;;;;;;5358264;26;19930;-80
2024/04/12 14:48:53;;;;;;;;;;;18.20;99.90;;;;;;5360792;26;19930;-79
2024/04/12 14:51:22;;;;;;;;;;;18.30;99.90;;;;;;5291556;27;19939;-79
2024/04/12 14:58:59;;;;;;;;;;;18.60;99.90;;;;;;5620393;21;19950;-81
2024/04/12 15:01:25;;;;;;;;;;;18.60;99.90;;;;;;5358015;26;19930;-81
2024/04/12 15:51:07;;;;;;;;;;;18.60;99.90;;;;;;5663436;21;19930;-81
2024/04/12 15:53:35;;;;;;;;;;;18.60;99.90;;;;;;5401355;26;19929;-82
2024/04/12 16:12:36;;;;;;;;;;;18.60;99.90;;;;;;5547521;21;20386;-79
2024/04/12 16:18:13;;;;;;;;;;;18.50;99.90;;;;;;5572300;21;19953;-79
2024/04/12 16:23:32;;;;;;;;;;;18.50;99.90;;;;;;5731285;21;19960;-80
2024/04/12 16:26:03;;;;;;;;;;;18.40;99.90;;;;;;5329794;26;19929;-80
2024/04/12 16:28:29;;;;;;;;;;;18.40;99.90;;;;;;5390672;26;19961;-79
2024/04/12 16:30:56;;;;;;;;;;;18.40;99.90;;;;;;5389193;26;20276;-79
2024/04/12 16:33:21;;;;;;;;;;;18.30;99.90;;;;;;5359849;26;19953;-80
2024/04/12 16:35:50;;;;;;;;;;;18.30;99.90;;;;;;5359374;26;19929;-80
2024/04/12 16:38:18;;;;;;;;;;;18.40;99.90;;;;;;5358661;26;19933;-80
2024/04/12 16:40:46;;;;;;;;;;;18.30;99.90;;;;;;5391184;26;19936;-79
2024/04/12 16:43:12;;;;;;;;;;;18.20;99.90;;;;;;5396117;26;19929;-80
2024/04/12 16:45:43;;;;;;;;;;;18.30;99.90;;;;;;5386740;26;20313;-80
2024/04/12 16:48:08;;;;;;;;;;;18.30;99.90;;;;;;5380011;26;20345;-80
2024/04/12 16:50:34;;;;;;;;;;;18.30;99.90;;;;;;5387917;26;20322;-79
2024/04/12 16:53:01;;;;;;;;;;;18.20;99.90;;;;;;5387584;26;20299;-79
2024/04/12 16:55:26;;;;;;;;;;;18.20;99.90;;;;;;5358128;26;19936;-79
2024/04/12 16:57:56;;;;;;;;;;;18.10;99.90;;;;;;5327579;26;20451;-79
2024/04/12 17:00:21;;;;;;;;;;;18.10;99.90;;;;;;5393749;26;19929;-79
2024/04/12 17:02:47;;;;;;;;;;;18.10;99.90;;;;;;5386585;26;19998;-79
2024/04/12 17:05:14;;;;;;;;;;;18.10;99.90;;;;;;5329398;26;19936;-79
2024/04/12 17:07:40;;;;;;;;;;;18.10;99.90;;;;;;5372278;26;19937;-79
2024/04/12 17:10:12;;;;;;;;;;;18.00;99.90;;;;;;5323623;26;20333;-79
2024/04/12 17:12:37;;;;;;;;;;;17.90;99.90;;;;;;5351270;26;19932;-79
2024/04/12 17:15:04;;;;;;;;;;;18.00;99.90;;;;;;5358959;26;19936;-80
2024/04/12 17:17:36;;;;;;;;;;;18.00;99.90;;;;;;5358880;26;19937;-79
2024/04/12 17:20:03;;;;;;;;;;;17.90;99.90;;;;;;5331192;26;20257;-79
2024/04/12 17:22:29;;;;;;;;;;;18.00;99.90;;;;;;5358828;26;19929;-80
2024/04/12 17:24:56;;;;;;;;;;;18.00;99.90;;;;;;5358364;26;19929;-80
2024/04/12 17:27:22;;;;;;;;;;;18.00;99.90;;;;;;5418889;26;19937;-80
2024/04/12 17:29:50;;;;;;;;;;;17.90;99.90;;;;;;5357770;26;19929;-80
2024/04/12 17:32:19;;;;;;;;;;;17.90;99.90;;;;;;5356583;26;19939;-80
2024/04/12 17:34:45;;;;;;;;;;;17.90;99.90;;;;;;5354360;26;19933;-79
2024/04/12 17:37:10;;;;;;;;;;;17.80;99.90;;;;;;5351102;26;19933;-79
2024/04/12 17:39:36;;;;;;;;;;;17.80;99.90;;;;;;5351898;26;19941;-79
2024/04/12 17:42:04;;;;;;;;;;;17.80;99.90;;;;;;5335806;26;19994;-79
2024/04/12 17:44:30;;;;;;;;;;;17.80;99.90;;;;;;5384802;26;19935;-79
2024/04/12 17:46:56;;;;;;;;;;;17.70;99.90;;;;;;5387771;26;19929;-79
2024/04/12 17:49:22;;;;;;;;;;;17.70;99.90;;;;;;5349495;26;19936;-79
2024/04/12 17:51:49;;;;;;;;;;;17.70;99.90;;;;;;5375769;26;19929;-79
2024/04/12 17:54:15;;;;;;;;;;;17.70;99.90;;;;;;5419860;26;19958;-79
2024/04/12 17:56:41;;;;;;;;;;;17.60;99.90;;;;;;5362091;26;19929;-79
2024/04/12 17:59:06;;;;;;;;;;;17.60;99.90;;;;;;5358700;26;19929;-80
2024/04/12 18:01:33;;;;;;;;;;;17.50;99.90;;;;;;5378793;26;19936;-79
2024/04/12 18:04:06;;;;;;;;;;;17.60;99.90;;;;;;5338914;26;19954;-79
2024/04/12 18:06:44;;;;;;;;;;;17.50;99.90;;;;;;5387200;26;19929;-79
2024/04/12 18:09:11;;;;;;;;;;;17.50;99.90;;;;;;5360775;26;19937;-79
2024/04/12 18:11:38;;;;;;;;;;;17.40;99.90;;;;;;5387986;26;20357;-80
2024/04/12 18:14:11;;;;;;;;;;;17.40;99.90;;;;;;5305593;26;19939;-79
2024/04/12 18:16:38;;;;;;;;;;;17.30;99.90;;;;;;5361325;26;20258;-79
2024/04/12 18:19:05;;;;;;;;;;;17.40;99.90;;;;;;5359680;26;19935;-80
2024/04/12 18:21:31;;;;;;;;;;;17.30;99.90;;;;;;5360384;26;19929;-80
2024/04/12 18:24:00;;;;;;;;;;;17.30;99.90;;;;;;5355187;26;19929;-79
2024/04/12 18:26:27;;;;;;;;;;;17.30;99.90;;;;;;5358992;26;19937;-79
2024/04/12 18:28:54;;;;;;;;;;;17.30;99.90;;;;;;5385964;26;19929;-79
2024/04/12 18:31:21;;;;;;;;;;;17.30;99.90;;;;;;5327958;26;19999;-79
2024/04/12 18:33:48;;;;;;;;;;;17.30;99.90;;;;;;5316231;26;19929;-80
2024/04/12 18:36:23;;;;;;;;;;;17.20;99.90;;;;;;5366574;26;19945;-80
2024/04/12 18:47:07;;;;;;;;;;;17.10;99.90;;;;;;5362872;26;19965;-80
2024/04/12 18:49:39;;;;;;;;;;;17.10;99.90;;;;;;5381071;26;19929;-80
2024/04/12 18:52:05;;;;;;;;;;;17.10;99.90;;;;;;5405760;26;19929;-80
2024/04/12 18:54:32;;;;;;;;;;;17.10;99.90;;;;;;5351624;26;20245;-80
2024/04/12 18:57:06;;;;;;;;;;;16.90;99.90;;;;;;5334115;26;19931;-80
2024/04/12 18:59:42;;;;;;;;;;;17.00;99.90;;;;;;5331067;26;19934;-80
2024/04/12 19:02:09;;;;;;;;;;;17.00;99.90;;;;;;5361429;26;20349;-80